createdAt,value
2023-02-15T00:01:15.237Z,101816.97
2023-02-15T00:06:18.806Z,101820.41
2023-02-15T00:11:40.658Z,101815.38
2023-02-15T00:16:45.206Z,101827.66
2023-02-15T00:21:49.683Z,101821.84
2023-02-15T00:26:54.095Z,101829.88
2023-02-15T00:31:57.270Z,101826.56
2023-02-15T00:37:00.342Z,101822.38
2023-02-15T00:42:03.572Z,101831.09
2023-02-15T00:47:06.460Z,101825.19
2023-02-15T00:52:09.363Z,101814.97
2023-02-15T00:57:12.323Z,101829.72
2023-02-15T01:02:15.567Z,101810.84
2023-02-15T01:07:18.449Z,101811.72
2023-02-15T01:12:21.311Z,101817.69
2023-02-15T01:17:24.413Z,101814.19
2023-02-15T01:22:27.476Z,101814.19
2023-02-15T01:27:31.977Z,101812.47
2023-02-15T01:32:34.772Z,101810.09
2023-02-15T01:37:37.934Z,101805.78
2023-02-15T01:42:41.645Z,101806.75
2023-02-15T01:47:51.955Z,101809.44
2023-02-15T01:53:38.025Z,101801.88
2023-02-15T01:58:42.292Z,101813.34
2023-02-15T02:03:58.836Z,101810.91
2023-02-15T02:09:03.158Z,101812.84
2023-02-15T02:14:06.233Z,101806.94
2023-02-15T02:19:36.486Z,101803.59
2023-02-15T02:25:02.195Z,101807.09
2023-02-15T02:30:23.965Z,101802.00
2023-02-15T02:36:04.326Z,101804.59
2023-02-15T02:41:28.507Z,101803.00
2023-02-15T02:47:13.287Z,101814.28
2023-02-15T02:52:46.550Z,101804.00
2023-02-15T02:58:30.438Z,101796.16
2023-02-15T03:03:43.166Z,101803.78
2023-02-15T03:09:17.891Z,101810.69
2023-02-15T03:14:21.285Z,101806.34
2023-02-15T03:19:30.489Z,101807.94
2023-02-15T03:24:52.482Z,101796.53
2023-02-15T03:30:00.691Z,101800.00
2023-02-15T03:35:04.251Z,101799.28
2023-02-15T03:40:45.680Z,101804.59
2023-02-15T03:45:57.776Z,101812.53
2023-02-15T03:51:27.097Z,101800.53
2023-02-15T03:56:30.716Z,101802.34
2023-02-15T04:01:59.446Z,101806.78
2023-02-15T04:07:04.523Z,101805.09
2023-02-15T04:12:07.881Z,101801.66
2023-02-15T04:17:11.190Z,101800.75
2023-02-15T04:22:32.587Z,101806.84
2023-02-15T04:27:35.711Z,101803.50
2023-02-15T04:32:39.728Z,101801.00
2023-02-15T04:37:43.884Z,101794.25
2023-02-15T04:42:50.170Z,101803.84
2023-02-15T04:47:53.278Z,101815.13
2023-02-15T04:52:56.298Z,101826.34
2023-02-15T04:57:59.210Z,101820.22
2023-02-15T05:03:02.258Z,101818.41
2023-02-15T05:08:05.301Z,101817.47
2023-02-15T05:13:08.328Z,101820.06
2023-02-15T05:18:11.374Z,101819.28
2023-02-15T05:23:14.922Z,101827.16
2023-02-15T05:28:20.891Z,101827.38
2023-02-15T05:33:23.950Z,101838.72
2023-02-15T05:38:27.072Z,101844.03
2023-02-15T05:43:30.598Z,101844.03
2023-02-15T05:48:34.091Z,101855.31
2023-02-15T05:53:39.465Z,101856.13
2023-02-15T05:58:43.484Z,101861.28
2023-02-15T06:03:47.344Z,101856.97
2023-02-15T06:08:51.087Z,101856.94
2023-02-15T06:13:53.951Z,101859.47
2023-02-15T06:18:56.967Z,101862.75
2023-02-15T06:24:00.059Z,101868.69
2023-02-15T06:29:03.723Z,101867.66
2023-02-15T06:34:07.630Z,101864.03
2023-02-15T06:39:10.710Z,101886.19
2023-02-15T06:44:13.752Z,101873.88
2023-02-15T06:49:19.106Z,101875.34
2023-02-15T06:54:22.169Z,101884.44
2023-02-15T06:59:25.219Z,101881.53
2023-02-15T07:04:30.547Z,101881.91
2023-02-15T07:09:33.625Z,101882.25
2023-02-15T07:14:36.713Z,101881.66
2023-02-15T07:19:39.720Z,101887.19
2023-02-15T07:24:42.544Z,101878.72
2023-02-15T07:29:45.488Z,101871.91
2023-02-15T07:34:48.364Z,101857.31
2023-02-15T07:39:51.604Z,101862.00
2023-02-15T07:44:54.604Z,101860.16
2023-02-15T07:49:57.720Z,101843.38
2023-02-15T07:55:00.810Z,101839.38
2023-02-15T08:00:05.184Z,101835.63
2023-02-15T08:05:09.494Z,101824.69
2023-02-15T08:10:32.434Z,101826.03
2023-02-15T08:15:35.365Z,101824.28
2023-02-15T08:20:38.389Z,101816.00
2023-02-15T08:25:41.379Z,101806.69
2023-02-15T08:30:44.448Z,101799.44
2023-02-15T08:35:48.032Z,101803.34
2023-02-15T08:40:51.009Z,101798.81
2023-02-15T08:45:53.982Z,101792.22
2023-02-15T08:50:56.994Z,101795.00
2023-02-15T08:56:00.874Z,101799.31
2023-02-15T09:01:19.439Z,101791.00
2023-02-15T09:06:23.584Z,101788.09
2023-02-15T09:11:29.881Z,101785.69
2023-02-15T09:16:36.341Z,101783.94
2023-02-15T09:21:40.075Z,101786.06
2023-02-15T09:26:45.990Z,101786.69
2023-02-15T09:31:51.527Z,101778.41
2023-02-15T09:36:54.627Z,101765.75
2023-02-15T09:42:44.918Z,101762.81
2023-02-15T09:48:02.820Z,101753.38
2023-02-15T09:53:29.960Z,101753.03
2023-02-15T09:58:57.171Z,101748.00
2023-02-15T10:04:22.136Z,101744.44
2023-02-15T10:09:46.839Z,101728.91
2023-02-15T10:15:12.646Z,101726.06
2023-02-15T10:20:51.162Z,101727.75
2023-02-15T10:26:03.537Z,101731.91
2023-02-15T10:31:34.872Z,101731.91
2023-02-15T10:37:36.694Z,101713.06
2023-02-15T10:43:31.686Z,101712.41
2023-02-15T10:48:43.531Z,101703.81
2023-02-15T10:54:10.977Z,101700.50
2023-02-15T10:59:25.795Z,101690.38
2023-02-15T11:05:01.517Z,101669.91
2023-02-15T11:10:41.436Z,101664.19
2023-02-15T11:16:09.594Z,101653.72
2023-02-15T11:21:41.253Z,101645.47
2023-02-15T11:26:57.819Z,101652.31
2023-02-15T11:32:15.559Z,101643.19
2023-02-15T11:37:25.376Z,101635.75
2023-02-15T11:42:31.521Z,101631.78
2023-02-15T11:47:35.064Z,101627.75
2023-02-15T11:52:38.050Z,101618.63
2023-02-15T11:57:49.515Z,101616.38
2023-02-15T12:02:56.148Z,101613.91
2023-02-15T12:08:10.689Z,101612.66
2023-02-15T12:13:19.630Z,101598.47
2023-02-15T12:18:37.596Z,101604.03
2023-02-15T12:23:51.041Z,101592.91
2023-02-15T12:28:55.623Z,101592.09
2023-02-15T12:34:03.559Z,101577.69
2023-02-15T12:39:12.906Z,101581.22
2023-02-15T12:44:24.831Z,101571.34
2023-02-15T12:49:30.800Z,101566.78
2023-02-15T12:54:42.809Z,101564.25
2023-02-15T13:00:00.494Z,101552.81
2023-02-15T13:05:31.980Z,101548.09
2023-02-15T13:10:40.904Z,101541.25
2023-02-15T13:15:49.535Z,101535.22
2023-02-15T13:20:53.758Z,101536.19
2023-02-15T13:26:04.034Z,101524.88
2023-02-15T13:31:19.961Z,101517.91
2023-02-15T13:36:39.287Z,101523.28
2023-02-15T13:42:10.083Z,101518.38
2023-02-15T13:47:27.159Z,101513.56
2023-02-15T13:52:34.045Z,101512.13
2023-02-15T13:58:15.134Z,101506.97
2023-02-15T14:04:03.149Z,101505.41
2023-02-15T14:09:48.608Z,101504.69
2023-02-15T14:15:27.582Z,101502.03
2023-02-15T14:20:51.752Z,101505.66
2023-02-15T14:26:21.054Z,101499.13
2023-02-15T14:31:35.580Z,101504.00
2023-02-15T14:36:38.855Z,101514.34
2023-02-15T14:41:54.425Z,101503.53
2023-02-15T14:47:15.832Z,101499.38
2023-02-15T14:52:18.672Z,101502.88
2023-02-15T14:57:27.440Z,101490.72
2023-02-15T15:02:51.443Z,101485.56
2023-02-15T15:07:59.175Z,101473.28
2023-02-15T15:13:34.113Z,101483.00
2023-02-15T15:18:49.051Z,101474.78
2023-02-15T15:23:52.354Z,101476.78
2023-02-15T15:28:58.736Z,101475.78
2023-02-15T15:35:02.282Z,101482.38
2023-02-15T15:40:25.856Z,101477.00
2023-02-15T15:46:00.377Z,101474.34
2023-02-15T15:51:32.195Z,101470.66
2023-02-15T15:56:38.475Z,101465.56
2023-02-15T16:01:45.415Z,101463.22
2023-02-15T16:06:48.412Z,101473.72
2023-02-15T16:12:06.219Z,101477.50
2023-02-15T16:17:20.709Z,101482.84
2023-02-15T16:22:30.250Z,101480.53
2023-02-15T16:27:41.793Z,101492.00
2023-02-15T16:32:44.838Z,101487.22
2023-02-15T16:37:48.284Z,101497.34
2023-02-15T16:43:23.714Z,101496.63
2023-02-15T16:48:28.778Z,101506.00
2023-02-15T16:53:31.878Z,101502.75
2023-02-15T16:58:43.674Z,101505.22
2023-02-15T17:03:51.311Z,101513.03
2023-02-15T17:09:15.728Z,101520.78
2023-02-15T17:14:28.012Z,101525.63
2023-02-15T17:19:40.991Z,101521.88
2023-02-15T17:24:46.960Z,101521.75
2023-02-15T17:29:59.458Z,101525.28
2023-02-15T17:35:25.996Z,101526.38
2023-02-15T17:40:33.285Z,101523.78
2023-02-15T17:45:50.191Z,101521.16
2023-02-15T17:50:53.414Z,101517.63
2023-02-15T17:55:59.350Z,101519.97
2023-02-15T18:01:35.417Z,101525.13
2023-02-15T18:07:00.723Z,101527.25
2023-02-15T18:12:15.835Z,101521.75
2023-02-15T18:17:19.278Z,101519.38
2023-02-15T18:22:23.576Z,101518.19
2023-02-15T18:27:27.393Z,101515.13
2023-02-15T18:32:36.393Z,101512.66
2023-02-15T18:37:39.840Z,101522.78
2023-02-15T18:42:51.616Z,101524.38
2023-02-15T18:48:00.629Z,101530.41
2023-02-15T18:53:07.809Z,101526.38
2023-02-15T18:58:18.398Z,101524.47
2023-02-15T19:03:24.077Z,101520.13
2023-02-15T19:08:26.906Z,101518.28
2023-02-15T19:13:30.352Z,101525.03
2023-02-15T19:18:33.603Z,101524.66
2023-02-15T19:23:36.882Z,101520.75
2023-02-15T19:28:40.143Z,101520.47
2023-02-15T19:33:43.585Z,101526.34
2023-02-15T19:38:51.261Z,101513.84
2023-02-15T19:43:56.296Z,101523.94
2023-02-15T19:48:59.922Z,101525.28
2023-02-15T19:54:03.111Z,101530.88
2023-02-15T19:59:23.644Z,101528.63
2023-02-15T20:04:27.308Z,101524.69
2023-02-15T20:09:35.494Z,101530.16
2023-02-15T20:14:38.436Z,101523.44
2023-02-15T20:19:41.685Z,101513.25
2023-02-15T20:24:44.695Z,101509.09
2023-02-15T20:29:48.170Z,101510.16
2023-02-15T20:34:51.136Z,101517.41
2023-02-15T20:39:54.623Z,101513.34
2023-02-15T20:44:57.404Z,101508.25
2023-02-15T20:50:01.885Z,101517.84
2023-02-15T20:55:27.140Z,101519.63
2023-02-15T21:00:32.229Z,101511.19
2023-02-15T21:05:35.224Z,101511.56
2023-02-15T21:10:38.632Z,101518.81
2023-02-15T21:15:41.655Z,101512.06
2023-02-15T21:20:48.436Z,101519.13
2023-02-15T21:25:51.773Z,101522.78
2023-02-15T21:31:00.066Z,101529.75
2023-02-15T21:36:03.177Z,101515.44
2023-02-15T21:41:25.098Z,101516.56
2023-02-15T21:46:47.010Z,101511.03
2023-02-15T21:52:09.681Z,101508.06
2023-02-15T21:57:18.728Z,101507.28
2023-02-15T22:02:30.494Z,101510.03
2023-02-15T22:07:33.484Z,101512.72
2023-02-15T22:12:38.374Z,101503.38
2023-02-15T22:17:41.107Z,101514.16
2023-02-15T22:22:44.007Z,101508.50
2023-02-15T22:27:48.259Z,101517.66
2023-02-15T22:32:54.793Z,101510.25
2023-02-15T22:37:58.281Z,101516.59
2023-02-15T22:43:05.715Z,101523.72
2023-02-15T22:48:11.501Z,101523.94
2023-02-15T22:53:15.133Z,101523.28
2023-02-15T22:58:24.810Z,101524.41
2023-02-15T23:03:31.487Z,101518.56
2023-02-15T23:08:35.723Z,101522.22
2023-02-15T23:13:38.825Z,101525.81
2023-02-15T23:18:47.282Z,101519.09
2023-02-15T23:23:57.580Z,101513.25
2023-02-15T23:29:04.012Z,101511.75
2023-02-15T23:34:25.955Z,101504.09
2023-02-15T23:39:47.673Z,101498.97
2023-02-15T23:44:51.548Z,101506.09
2023-02-15T23:49:54.536Z,101494.88
2023-02-15T23:54:57.484Z,101493.22
